sensor_id;sensor_type;location;lat;lon;timestamp;temperature;humidity
44121;DHT22;29783;52.504;13.478;2023-05-02T00:25:29;14.50;43.80
44121;DHT22;29783;52.504;13.478;2023-05-02T00:27:55;14.50;44.00
44121;DHT22;29783;52.504;13.478;2023-05-02T00:30:21;14.50;43.80
44121;DHT22;29783;52.504;13.478;2023-05-02T00:32:47;14.50;43.90
44121;DHT22;29783;52.504;13.478;2023-05-02T00:35:12;14.60;43.70
44121;DHT22;29783;52.504;13.478;2023-05-02T00:37:40;14.60;43.60
44121;DHT22;29783;52.504;13.478;2023-05-02T00:40:07;14.50;43.80
44121;DHT22;29783;52.504;13.478;2023-05-02T00:42:34;14.50;43.60
44121;DHT22;29783;52.504;13.478;2023-05-02T01:54:29;13.90;53.00
44121;DHT22;29783;52.504;13.478;2023-05-02T01:56:55;13.80;53.50
44121;DHT22;29783;52.504;13.478;2023-05-02T01:59:22;13.70;53.90
44121;DHT22;29783;52.504;13.478;2023-05-02T02:01:53;13.70;54.10
44121;DHT22;29783;52.504;13.478;2023-05-02T02:04:19;13.50;54.60
44121;DHT22;29783;52.504;13.478;2023-05-02T02:06:51;13.50;55.00
44121;DHT22;29783;52.504;13.478;2023-05-02T02:09:18;13.30;55.40
44121;DHT22;29783;52.504;13.478;2023-05-02T02:11:58;13.30;55.90
44121;DHT22;29783;52.504;13.478;2023-05-02T02:14:37;13.20;56.20
44121;DHT22;29783;52.504;13.478;2023-05-02T02:17:29;13.30;56.20
44121;DHT22;29783;52.504;13.478;2023-05-02T02:20:00;13.30;56.30
44121;DHT22;29783;52.504;13.478;2023-05-02T02:22:28;13.20;56.70
44121;DHT22;29783;52.504;13.478;2023-05-02T02:24:55;13.10;56.90
44121;DHT22;29783;52.504;13.478;2023-05-02T02:27:21;13.00;57.30
44121;DHT22;29783;52.504;13.478;2023-05-02T02:29:47;13.00;57.50
44121;DHT22;29783;52.504;13.478;2023-05-02T02:32:13;12.90;57.90
44121;DHT22;29783;52.504;13.478;2023-05-02T02:34:40;12.80;58.30
44121;DHT22;29783;52.504;13.478;2023-05-02T02:37:26;12.70;58.70
44121;DHT22;29783;52.504;13.478;2023-05-02T02:42:54;12.60;59.50
44121;DHT22;29783;52.504;13.478;2023-05-02T02:45:47;12.50;59.70
44121;DHT22;29783;52.504;13.478;2023-05-02T02:48:24;12.40;60.10
44121;DHT22;29783;52.504;13.478;2023-05-02T02:51:09;12.30;60.50
44121;DHT22;29783;52.504;13.478;2023-05-02T02:54:34;12.20;60.80
44121;DHT22;29783;52.504;13.478;2023-05-02T02:56:42;12.20;60.80
44121;DHT22;29783;52.504;13.478;2023-05-02T03:01:39;12.20;60.70
44121;DHT22;29783;52.504;13.478;2023-05-02T03:04:07;12.20;60.80
44121;DHT22;29783;52.504;13.478;2023-05-02T03:06:34;12.10;61.10
44121;DHT22;29783;52.504;13.478;2023-05-02T03:09:01;12.00;61.40
44121;DHT22;29783;52.504;13.478;2023-05-02T03:11:28;11.90;61.50
44121;DHT22;29783;52.504;13.478;2023-05-02T03:13:54;11.90;61.50
44121;DHT22;29783;52.504;13.478;2023-05-02T03:16:35;11.90;61.80
44121;DHT22;29783;52.504;13.478;2023-05-02T03:19:05;11.80;62.10
44121;DHT22;29783;52.504;13.478;2023-05-02T03:21:31;11.80;62.40
44121;DHT22;29783;52.504;13.478;2023-05-02T03:23:59;11.70;62.60
44121;DHT22;29783;52.504;13.478;2023-05-02T03:26:29;11.70;62.60
44121;DHT22;29783;52.504;13.478;2023-05-02T03:28:55;11.70;62.70
44121;DHT22;29783;52.504;13.478;2023-05-02T03:31:21;11.80;62.70
44121;DHT22;29783;52.504;13.478;2023-05-02T03:33:48;11.70;62.70
44121;DHT22;29783;52.504;13.478;2023-05-02T03:36:14;11.80;62.50
44121;DHT22;29783;52.504;13.478;2023-05-02T03:38:42;11.70;62.80
44121;DHT22;29783;52.504;13.478;2023-05-02T03:41:07;11.70;62.90
44121;DHT22;29783;52.504;13.478;2023-05-02T03:43:33;11.70;62.90
44121;DHT22;29783;52.504;13.478;2023-05-02T04:31:55;11.40;66.80
44121;DHT22;29783;52.504;13.478;2023-05-02T04:34:21;11.50;66.70
44121;DHT22;29783;52.504;13.478;2023-05-02T04:36:47;11.50;66.90
44121;DHT22;29783;52.504;13.478;2023-05-02T04:39:13;11.50;67.00
44121;DHT22;29783;52.504;13.478;2023-05-02T04:41:38;11.50;66.90
44121;DHT22;29783;52.504;13.478;2023-05-02T04:44:04;11.50;66.90
44121;DHT22;29783;52.504;13.478;2023-05-02T04:46:30;11.50;67.00
44121;DHT22;29783;52.504;13.478;2023-05-02T04:48:55;11.60;66.70
44121;DHT22;29783;52.504;13.478;2023-05-02T04:51:21;11.70;66.50
44121;DHT22;29783;52.504;13.478;2023-05-02T04:53:46;11.60;66.60
44121;DHT22;29783;52.504;13.478;2023-05-02T04:56:12;11.60;66.50
44121;DHT22;29783;52.504;13.478;2023-05-02T04:58:37;11.60;66.60
44121;DHT22;29783;52.504;13.478;2023-05-02T05:01:03;11.70;66.30
44121;DHT22;29783;52.504;13.478;2023-05-02T05:03:29;11.80;66.30
44121;DHT22;29783;52.504;13.478;2023-05-02T05:05:55;11.90;65.70
44121;DHT22;29783;52.504;13.478;2023-05-02T05:08:21;12.10;65.30
44121;DHT22;29783;52.504;13.478;2023-05-02T05:10:47;12.10;64.90
44121;DHT22;29783;52.504;13.478;2023-05-02T05:13:12;12.00;65.40
44121;DHT22;29783;52.504;13.478;2023-05-02T05:15:38;12.00;65.10
44121;DHT22;29783;52.504;13.478;2023-05-02T05:18:05;12.10;64.90
44121;DHT22;29783;52.504;13.478;2023-05-02T05:20:31;12.10;64.90
44121;DHT22;29783;52.504;13.478;2023-05-02T05:22:58;12.10;65.00
44121;DHT22;29783;52.504;13.478;2023-05-02T05:25:25;12.00;65.20
44121;DHT22;29783;52.504;13.478;2023-05-02T05:27:51;11.90;65.70
44121;DHT22;29783;52.504;13.478;2023-05-02T05:30:17;11.90;65.80
44121;DHT22;29783;52.504;13.478;2023-05-02T05:32:43;11.90;65.90
44121;DHT22;29783;52.504;13.478;2023-05-02T05:35:09;11.80;66.40
44121;DHT22;29783;52.504;13.478;2023-05-02T05:37:34;11.80;66.60
44121;DHT22;29783;52.504;13.478;2023-05-02T05:40:07;12.00;66.40
44121;DHT22;29783;52.504;13.478;2023-05-02T05:42:32;12.00;66.40
44121;DHT22;29783;52.504;13.478;2023-05-02T05:44:58;12.00;66.30
44121;DHT22;29783;52.504;13.478;2023-05-02T05:47:24;12.10;66.40
44121;DHT22;29783;52.504;13.478;2023-05-02T05:49:53;12.10;66.30
44121;DHT22;29783;52.504;13.478;2023-05-02T05:52:19;12.20;66.30
44121;DHT22;29783;52.504;13.478;2023-05-02T05:54:44;12.30;66.10
44121;DHT22;29783;52.504;13.478;2023-05-02T05:57:10;12.30;66.10
44121;DHT22;29783;52.504;13.478;2023-05-02T05:59:36;12.30;66.30
44121;DHT22;29783;52.504;13.478;2023-05-02T06:02:02;12.30;66.40
44121;DHT22;29783;52.504;13.478;2023-05-02T06:04:28;12.40;66.40
44121;DHT22;29783;52.504;13.478;2023-05-02T06:06:54;12.40;66.60
44121;DHT22;29783;52.504;13.478;2023-05-02T06:09:20;12.50;66.60
44121;DHT22;29783;52.504;13.478;2023-05-02T06:11:45;12.30;66.90
44121;DHT22;29783;52.504;13.478;2023-05-02T06:14:13;12.30;67.00
44121;DHT22;29783;52.504;13.478;2023-05-02T06:16:40;12.30;67.20
44121;DHT22;29783;52.504;13.478;2023-05-02T06:19:06;12.50;67.00
44121;DHT22;29783;52.504;13.478;2023-05-02T06:21:35;12.50;66.70
44121;DHT22;29783;52.504;13.478;2023-05-02T06:24:02;12.60;66.60
44121;DHT22;29783;52.504;13.478;2023-05-02T06:26:29;12.50;66.90
44121;DHT22;29783;52.504;13.478;2023-05-02T06:28:55;12.50;67.00
44121;DHT22;29783;52.504;13.478;2023-05-02T06:31:21;12.50;67.20
44121;DHT22;29783;52.504;13.478;2023-05-02T06:33:46;12.70;67.30
44121;DHT22;29783;52.504;13.478;2023-05-02T06:36:13;12.80;66.90
44121;DHT22;29783;52.504;13.478;2023-05-02T06:38:40;12.80;66.60
44121;DHT22;29783;52.504;13.478;2023-05-02T06:41:12;12.80;67.00
44121;DHT22;29783;52.504;13.478;2023-05-02T06:43:39;12.80;67.20
44121;DHT22;29783;52.504;13.478;2023-05-02T07:11:58;13.00;68.50
44121;DHT22;29783;52.504;13.478;2023-05-02T07:14:26;12.70;69.30
44121;DHT22;29783;52.504;13.478;2023-05-02T07:16:52;12.80;69.30
44121;DHT22;29783;52.504;13.478;2023-05-02T07:19:18;13.00;69.00
44121;DHT22;29783;52.504;13.478;2023-05-02T07:21:44;13.10;68.70
44121;DHT22;29783;52.504;13.478;2023-05-02T07:24:09;13.20;68.50
44121;DHT22;29783;52.504;13.478;2023-05-02T07:26:35;13.30;67.90
44121;DHT22;29783;52.504;13.478;2023-05-02T07:29:01;13.50;67.40
44121;DHT22;29783;52.504;13.478;2023-05-02T07:31:27;13.80;67.00
44121;DHT22;29783;52.504;13.478;2023-05-02T07:33:54;14.00;65.80
44121;DHT22;29783;52.504;13.478;2023-05-02T07:36:19;14.20;65.40
44121;DHT22;29783;52.504;13.478;2023-05-02T07:38:45;14.50;64.50
44121;DHT22;29783;52.504;13.478;2023-05-02T07:41:12;14.80;63.30
44121;DHT22;29783;52.504;13.478;2023-05-02T07:43:39;14.50;64.30
44121;DHT22;29783;52.504;13.478;2023-05-02T08:27:08;14.70;64.30
44121;DHT22;29783;52.504;13.478;2023-05-02T08:29:34;14.70;64.10
44121;DHT22;29783;52.504;13.478;2023-05-02T08:32:00;14.90;63.90
44121;DHT22;29783;52.504;13.478;2023-05-02T08:34:25;15.10;63.40
44121;DHT22;29783;52.504;13.478;2023-05-02T08:36:51;15.20;62.80
44121;DHT22;29783;52.504;13.478;2023-05-02T08:39:16;15.10;63.50
44121;DHT22;29783;52.504;13.478;2023-05-02T08:41:42;15.00;64.10
44121;DHT22;29783;52.504;13.478;2023-05-02T08:44:09;14.90;64.70
44121;DHT22;29783;52.504;13.478;2023-05-02T08:46:40;14.90;64.50
44121;DHT22;29783;52.504;13.478;2023-05-02T08:49:12;14.70;65.20
44121;DHT22;29783;52.504;13.478;2023-05-02T08:51:40;14.60;65.70
44121;DHT22;29783;52.504;13.478;2023-05-02T08:54:08;14.70;65.50
44121;DHT22;29783;52.504;13.478;2023-05-02T08:56:34;14.70;65.50
44121;DHT22;29783;52.504;13.478;2023-05-02T08:59:01;14.80;64.70
44121;DHT22;29783;52.504;13.478;2023-05-02T09:01:29;15.00;64.20
44121;DHT22;29783;52.504;13.478;2023-05-02T09:03:56;14.80;64.60
44121;DHT22;29783;52.504;13.478;2023-05-02T09:06:25;14.70;65.40
44121;DHT22;29783;52.504;13.478;2023-05-02T09:08:51;14.50;65.40
44121;DHT22;29783;52.504;13.478;2023-05-02T09:11:18;14.50;66.30
44121;DHT22;29783;52.504;13.478;2023-05-02T09:13:47;14.30;66.50
44121;DHT22;29783;52.504;13.478;2023-05-02T09:16:14;14.20;67.30
44121;DHT22;29783;52.504;13.478;2023-05-02T09:18:48;14.40;66.80
44121;DHT22;29783;52.504;13.478;2023-05-02T09:21:18;14.50;66.20
44121;DHT22;29783;52.504;13.478;2023-05-02T09:23:53;14.60;65.70
44121;DHT22;29783;52.504;13.478;2023-05-02T09:26:22;14.50;66.10
44121;DHT22;29783;52.504;13.478;2023-05-02T09:28:52;14.70;65.50
44121;DHT22;29783;52.504;13.478;2023-05-02T09:31:20;14.80;65.40
44121;DHT22;29783;52.504;13.478;2023-05-02T09:33:46;15.00;65.00
44121;DHT22;29783;52.504;13.478;2023-05-02T09:36:17;15.30;63.70
44121;DHT22;29783;52.504;13.478;2023-05-02T09:38:46;15.20;64.20
44121;DHT22;29783;52.504;13.478;2023-05-02T09:41:12;15.10;64.60
44121;DHT22;29783;52.504;13.478;2023-05-02T09:43:40;15.00;64.80
44121;DHT22;29783;52.504;13.478;2023-05-02T10:19:58;15.40;64.10
44121;DHT22;29783;52.504;13.478;2023-05-02T10:22:28;15.50;63.00
44121;DHT22;29783;52.504;13.478;2023-05-02T10:24:57;15.50;63.00
44121;DHT22;29783;52.504;13.478;2023-05-02T10:27:24;15.20;64.00
44121;DHT22;29783;52.504;13.478;2023-05-02T10:29:50;14.80;65.50
44121;DHT22;29783;52.504;13.478;2023-05-02T10:32:17;14.70;66.10
44121;DHT22;29783;52.504;13.478;2023-05-02T10:34:43;14.70;67.40
44121;DHT22;29783;52.504;13.478;2023-05-02T10:37:10;14.30;70.30
44121;DHT22;29783;52.504;13.478;2023-05-02T10:39:36;13.80;71.70
44121;DHT22;29783;52.504;13.478;2023-05-02T10:42:03;13.80;72.20
44121;DHT22;29783;52.504;13.478;2023-05-02T10:44:38;14.10;70.50
44121;DHT22;29783;52.504;13.478;2023-05-02T10:47:23;14.40;69.90
44121;DHT22;29783;52.504;13.478;2023-05-02T10:50:00;14.70;67.90
44121;DHT22;29783;52.504;13.478;2023-05-02T10:52:37;15.00;67.20
44121;DHT22;29783;52.504;13.478;2023-05-02T10:55:19;14.70;67.40
44121;DHT22;29783;52.504;13.478;2023-05-02T11:00:31;14.40;68.20
44121;DHT22;29783;52.504;13.478;2023-05-02T11:02:58;14.60;68.10
44121;DHT22;29783;52.504;13.478;2023-05-02T11:05:24;14.60;67.90
44121;DHT22;29783;52.504;13.478;2023-05-02T11:10:44;14.10;68.40
44121;DHT22;29783;52.504;13.478;2023-05-02T11:13:10;13.50;70.30
44121;DHT22;29783;52.504;13.478;2023-05-02T11:18:08;12.80;72.50
44121;DHT22;29783;52.504;13.478;2023-05-02T11:20:40;12.70;72.40
44121;DHT22;29783;52.504;13.478;2023-05-02T11:25:48;12.60;73.00
44121;DHT22;29783;52.504;13.478;2023-05-02T11:28:39;12.50;73.10
44121;DHT22;29783;52.504;13.478;2023-05-02T11:33:59;12.80;71.40
44121;DHT22;29783;52.504;13.478;2023-05-02T11:38:54;13.80;65.30
44121;DHT22;29783;52.504;13.478;2023-05-02T11:41:20;13.90;64.80
44121;DHT22;29783;52.504;13.478;2023-05-02T11:43:45;13.70;65.00
44121;DHT22;29783;52.504;13.478;2023-05-02T11:46:11;13.70;64.60
44121;DHT22;29783;52.504;13.478;2023-05-02T11:48:37;13.60;64.80
44121;DHT22;29783;52.504;13.478;2023-05-02T11:51:02;13.40;65.10
44121;DHT22;29783;52.504;13.478;2023-05-02T11:53:30;13.60;63.50
44121;DHT22;29783;52.504;13.478;2023-05-02T11:55:57;13.30;63.80
44121;DHT22;29783;52.504;13.478;2023-05-02T11:58:24;13.40;63.30
44121;DHT22;29783;52.504;13.478;2023-05-02T12:00:51;13.40;62.80
44121;DHT22;29783;52.504;13.478;2023-05-02T12:03:29;13.30;62.70
44121;DHT22;29783;52.504;13.478;2023-05-02T12:05:56;13.30;62.80
44121;DHT22;29783;52.504;13.478;2023-05-02T12:08:26;13.70;61.50
44121;DHT22;29783;52.504;13.478;2023-05-02T12:10:54;13.70;60.10
44121;DHT22;29783;52.504;13.478;2023-05-02T12:13:22;13.40;60.80
44121;DHT22;29783;52.504;13.478;2023-05-02T12:15:50;13.20;61.10
44121;DHT22;29783;52.504;13.478;2023-05-02T12:18:16;13.30;61.20
44121;DHT22;29783;52.504;13.478;2023-05-02T12:20:42;13.70;59.40
44121;DHT22;29783;52.504;13.478;2023-05-02T12:23:09;13.50;59.30
44121;DHT22;29783;52.504;13.478;2023-05-02T12:25:40;13.50;59.60
44121;DHT22;29783;52.504;13.478;2023-05-02T12:28:06;13.60;59.60
44121;DHT22;29783;52.504;13.478;2023-05-02T12:30:33;13.30;60.30
44121;DHT22;29783;52.504;13.478;2023-05-02T12:33:00;13.50;59.90
44121;DHT22;29783;52.504;13.478;2023-05-02T12:35:27;13.30;60.20
44121;DHT22;29783;52.504;13.478;2023-05-02T12:37:53;13.30;60.10
44121;DHT22;29783;52.504;13.478;2023-05-02T12:40:20;13.20;60.00
44121;DHT22;29783;52.504;13.478;2023-05-02T12:43:05;13.30;59.80
44121;DHT22;29783;52.504;13.478;2023-05-02T13:15:51;17.80;45.50
44121;DHT22;29783;52.504;13.478;2023-05-02T13:26:03;19.00;41.70
44121;DHT22;29783;52.504;13.478;2023-05-02T13:31:52;16.70;46.20
44121;DHT22;29783;52.504;13.478;2023-05-02T13:38:09;15.90;47.60
44121;DHT22;29783;52.504;13.478;2023-05-02T13:40:57;16.10;47.30
44121;DHT22;29783;52.504;13.478;2023-05-02T13:43:50;16.20;46.70
44121;DHT22;29783;52.504;13.478;2023-05-02T13:46:39;15.10;49.30
44121;DHT22;29783;52.504;13.478;2023-05-02T13:49:11;14.80;50.40
44121;DHT22;29783;52.504;13.478;2023-05-02T13:51:49;14.40;51.10
44121;DHT22;29783;52.504;13.478;2023-05-02T13:54:49;13.90;52.60
44121;DHT22;29783;52.504;13.478;2023-05-02T14:01:05;14.30;52.10
44121;DHT22;29783;52.504;13.478;2023-05-02T14:03:36;14.10;51.90
44121;DHT22;29783;52.504;13.478;2023-05-02T14:06:05;14.00;52.20
44121;DHT22;29783;52.504;13.478;2023-05-02T14:08:33;15.30;48.80
44121;DHT22;29783;52.504;13.478;2023-05-02T14:14:24;17.00;43.60
44121;DHT22;29783;52.504;13.478;2023-05-02T14:28:24;18.90;39.30
44121;DHT22;29783;52.504;13.478;2023-05-02T16:00:49;14.70;46.20
44121;DHT22;29783;52.504;13.478;2023-05-02T16:03:16;16.70;40.80
44121;DHT22;29783;52.504;13.478;2023-05-02T16:05:43;18.30;37.90
44121;DHT22;29783;52.504;13.478;2023-05-02T16:08:09;19.30;35.60
44121;DHT22;29783;52.504;13.478;2023-05-02T16:10:34;19.40;34.90
44121;DHT22;29783;52.504;13.478;2023-05-02T16:13:00;18.90;36.00
44121;DHT22;29783;52.504;13.478;2023-05-02T16:15:26;19.70;34.50
44121;DHT22;29783;52.504;13.478;2023-05-02T16:17:53;19.10;35.20
44121;DHT22;29783;52.504;13.478;2023-05-02T16:20:18;19.70;35.10
44121;DHT22;29783;52.504;13.478;2023-05-02T16:22:45;20.00;33.80
44121;DHT22;29783;52.504;13.478;2023-05-02T16:25:12;19.90;33.70
44121;DHT22;29783;52.504;13.478;2023-05-02T16:27:38;19.30;35.00
44121;DHT22;29783;52.504;13.478;2023-05-02T16:30:04;20.10;33.90
44121;DHT22;29783;52.504;13.478;2023-05-02T16:32:30;21.00;33.10
44121;DHT22;29783;52.504;13.478;2023-05-02T16:34:56;20.90;32.80
44121;DHT22;29783;52.504;13.478;2023-05-02T16:37:21;21.00;32.60
44121;DHT22;29783;52.504;13.478;2023-05-02T16:39:48;21.70;31.00
44121;DHT22;29783;52.504;13.478;2023-05-02T16:42:13;21.40;31.50
44121;DHT22;29783;52.504;13.478;2023-05-02T17:20:22;18.70;35.50
44121;DHT22;29783;52.504;13.478;2023-05-02T17:22:48;19.70;34.50
44121;DHT22;29783;52.504;13.478;2023-05-02T17:25:14;19.70;34.10
44121;DHT22;29783;52.504;13.478;2023-05-02T17:27:39;19.80;34.00
44121;DHT22;29783;52.504;13.478;2023-05-02T17:30:05;19.20;34.70
44121;DHT22;29783;52.504;13.478;2023-05-02T17:32:32;18.80;35.10
44121;DHT22;29783;52.504;13.478;2023-05-02T17:34:59;17.40;37.20
44121;DHT22;29783;52.504;13.478;2023-05-02T17:37:25;16.30;39.00
44121;DHT22;29783;52.504;13.478;2023-05-02T17:39:50;15.70;40.30
44121;DHT22;29783;52.504;13.478;2023-05-02T17:42:16;14.80;41.80
44121;DHT22;29783;52.504;13.478;2023-05-02T17:44:41;14.30;42.60
44121;DHT22;29783;52.504;13.478;2023-05-02T17:47:07;14.10;43.40
44121;DHT22;29783;52.504;13.478;2023-05-02T17:49:33;13.70;44.70
44121;DHT22;29783;52.504;13.478;2023-05-02T17:51:59;13.40;46.20
44121;DHT22;29783;52.504;13.478;2023-05-02T17:54:25;13.20;47.10
44121;DHT22;29783;52.504;13.478;2023-05-02T17:56:50;12.90;47.50
44121;DHT22;29783;52.504;13.478;2023-05-02T17:59:16;12.70;47.80
44121;DHT22;29783;52.504;13.478;2023-05-02T18:01:43;12.50;48.30
44121;DHT22;29783;52.504;13.478;2023-05-02T18:04:08;12.50;48.60
44121;DHT22;29783;52.504;13.478;2023-05-02T18:06:37;12.50;48.40
44121;DHT22;29783;52.504;13.478;2023-05-02T18:09:04;12.40;48.60
44121;DHT22;29783;52.504;13.478;2023-05-02T18:11:29;12.40;48.80
44121;DHT22;29783;52.504;13.478;2023-05-02T18:13:56;12.30;49.00
44121;DHT22;29783;52.504;13.478;2023-05-02T18:16:26;12.30;49.00
44121;DHT22;29783;52.504;13.478;2023-05-02T18:18:52;12.20;49.10
44121;DHT22;29783;52.504;13.478;2023-05-02T18:21:21;12.20;48.90
44121;DHT22;29783;52.504;13.478;2023-05-02T18:23:47;12.10;49.10
44121;DHT22;29783;52.504;13.478;2023-05-02T18:26:14;12.10;49.20
44121;DHT22;29783;52.504;13.478;2023-05-02T18:28:40;12.10;49.30
44121;DHT22;29783;52.504;13.478;2023-05-02T18:31:14;12.00;49.30
44121;DHT22;29783;52.504;13.478;2023-05-02T18:33:40;12.00;49.40
44121;DHT22;29783;52.504;13.478;2023-05-02T18:36:06;11.80;49.50
44121;DHT22;29783;52.504;13.478;2023-05-02T18:38:32;11.80;49.10
44121;DHT22;29783;52.504;13.478;2023-05-02T18:41:00;11.70;49.80
44121;DHT22;29783;52.504;13.478;2023-05-02T18:43:25;11.60;48.40
44121;DHT22;29783;52.504;13.478;2023-05-02T19:25:22;11.50;48.40
44121;DHT22;29783;52.504;13.478;2023-05-02T19:27:48;11.50;48.40
44121;DHT22;29783;52.504;13.478;2023-05-02T19:30:14;11.50;48.50
44121;DHT22;29783;52.504;13.478;2023-05-02T19:32:40;11.50;48.80
44121;DHT22;29783;52.504;13.478;2023-05-02T19:35:06;11.50;48.90
44121;DHT22;29783;52.504;13.478;2023-05-02T19:37:33;11.50;49.00
44121;DHT22;29783;52.504;13.478;2023-05-02T19:40:00;11.50;49.10
44121;DHT22;29783;52.504;13.478;2023-05-02T19:42:25;11.50;49.00
